sensor_id;sensor_type;location;lat;lon;timestamp;P1;durP1;ratioP1;P2;durP2;ratioP2
6523;SDS011;3295;38.928;-77.052;2023-07-08T00:01:59;8.40;;;4.45;;
6523;SDS011;3295;38.928;-77.052;2023-07-08T00:04:26;7.80;;;4.57;;
6523;SDS011;3295;38.928;-77.052;2023-07-08T00:06:55;8.77;;;4.32;;
6523;SDS011;3295;38.928;-77.052;2023-07-08T00:09:22;8.07;;;4.53;;
6523;SDS011;3295;38.928;-77.052;2023-07-08T00:11:49;8.20;;;4.65;;
6523;SDS011;3295;38.928;-77.052;2023-07-08T00:14:17;8.82;;;4.72;;
6523;SDS011;3295;38.928;-77.052;2023-07-08T00:16:44;7.82;;;4.57;;
6523;SDS011;3295;38.928;-77.052;2023-07-08T00:19:11;8.38;;;4.88;;
6523;SDS011;3295;38.928;-77.052;2023-07-08T00:21:38;8.55;;;5.10;;
6523;SDS011;3295;38.928;-77.052;2023-07-08T00:24:07;8.35;;;5.05;;
6523;SDS011;3295;38.928;-77.052;2023-07-08T00:26:34;7.05;;;4.45;;
6523;SDS011;3295;38.928;-77.052;2023-07-08T00:29:01;7.97;;;4.65;;
6523;SDS011;3295;38.928;-77.052;2023-07-08T00:31:28;8.18;;;4.75;;
6523;SDS011;3295;38.928;-77.052;2023-07-08T00:33:57;8.68;;;4.57;;
6523;SDS011;3295;38.928;-77.052;2023-07-08T00:36:25;6.97;;;4.32;;
6523;SDS011;3295;38.928;-77.052;2023-07-08T00:38:52;7.25;;;4.18;;
6523;SDS011;3295;38.928;-77.052;2023-07-08T00:41:22;8.57;;;4.32;;
6523;SDS011;3295;38.928;-77.052;2023-07-08T00:43:52;7.80;;;4.80;;
6523;SDS011;3295;38.928;-77.052;2023-07-08T00:46:25;8.18;;;4.85;;
6523;SDS011;3295;38.928;-77.052;2023-07-08T00:48:57;6.57;;;4.25;;
6523;SDS011;3295;38.928;-77.052;2023-07-08T00:51:26;9.93;;;4.80;;
6523;SDS011;3295;38.928;-77.052;2023-07-08T00:53:53;9.52;;;5.13;;
6523;SDS011;3295;38.928;-77.052;2023-07-08T00:56:23;8.88;;;5.15;;
6523;SDS011;3295;38.928;-77.052;2023-07-08T00:58:55;8.10;;;4.68;;
6523;SDS011;3295;38.928;-77.052;2023-07-08T01:01:24;8.13;;;4.72;;
6523;SDS011;3295;38.928;-77.052;2023-07-08T01:03:54;9.13;;;4.63;;
6523;SDS011;3295;38.928;-77.052;2023-07-08T01:06:23;7.35;;;4.50;;
6523;SDS011;3295;38.928;-77.052;2023-07-08T01:08:56;8.90;;;4.70;;
6523;SDS011;3295;38.928;-77.052;2023-07-08T01:11:26;8.68;;;4.88;;
6523;SDS011;3295;38.928;-77.052;2023-07-08T01:13:53;7.32;;;4.57;;
6523;SDS011;3295;38.928;-77.052;2023-07-08T01:16:20;9.30;;;4.32;;
6523;SDS011;3295;38.928;-77.052;2023-07-08T01:18:48;7.05;;;4.70;;
6523;SDS011;3295;38.928;-77.052;2023-07-08T01:21:29;9.70;;;4.68;;
6523;SDS011;3295;38.928;-77.052;2023-07-08T01:23:58;8.48;;;4.45;;
6523;SDS011;3295;38.928;-77.052;2023-07-08T01:26:26;9.02;;;4.68;;
6523;SDS011;3295;38.928;-77.052;2023-07-08T01:28:53;6.50;;;4.40;;
6523;SDS011;3295;38.928;-77.052;2023-07-08T01:31:21;8.65;;;4.70;;
6523;SDS011;3295;38.928;-77.052;2023-07-08T01:33:48;10.30;;;5.60;;
6523;SDS011;3295;38.928;-77.052;2023-07-08T01:36:16;7.32;;;4.70;;
6523;SDS011;3295;38.928;-77.052;2023-07-08T01:38:44;7.78;;;4.70;;
6523;SDS011;3295;38.928;-77.052;2023-07-08T01:41:13;6.28;;;4.20;;
6523;SDS011;3295;38.928;-77.052;2023-07-08T01:43:40;7.97;;;4.97;;
6523;SDS011;3295;38.928;-77.052;2023-07-08T01:46:09;8.38;;;4.72;;
6523;SDS011;3295;38.928;-77.052;2023-07-08T01:48:38;8.30;;;4.97;;
6523;SDS011;3295;38.928;-77.052;2023-07-08T01:51:06;6.68;;;4.38;;
6523;SDS011;3295;38.928;-77.052;2023-07-08T01:53:34;10.65;;;5.47;;
6523;SDS011;3295;38.928;-77.052;2023-07-08T01:56:02;7.25;;;4.95;;
6523;SDS011;3295;38.928;-77.052;2023-07-08T01:58:31;10.13;;;5.10;;
6523;SDS011;3295;38.928;-77.052;2023-07-08T02:00:58;6.78;;;4.65;;
6523;SDS011;3295;38.928;-77.052;2023-07-08T02:03:26;8.82;;;4.93;;
6523;SDS011;3295;38.928;-77.052;2023-07-08T02:05:53;9.68;;;4.97;;
6523;SDS011;3295;38.928;-77.052;2023-07-08T02:08:20;7.07;;;4.65;;
6523;SDS011;3295;38.928;-77.052;2023-07-08T02:10:48;8.90;;;4.72;;
6523;SDS011;3295;38.928;-77.052;2023-07-08T02:13:16;9.30;;;5.40;;
6523;SDS011;3295;38.928;-77.052;2023-07-08T02:15:45;9.10;;;5.03;;
6523;SDS011;3295;38.928;-77.052;2023-07-08T02:18:12;7.80;;;4.47;;
6523;SDS011;3295;38.928;-77.052;2023-07-08T02:20:39;7.82;;;4.65;;
6523;SDS011;3295;38.928;-77.052;2023-07-08T02:23:06;10.18;;;5.35;;
6523;SDS011;3295;38.928;-77.052;2023-07-08T02:25:33;7.47;;;4.47;;
6523;SDS011;3295;38.928;-77.052;2023-07-08T02:28:00;8.10;;;5.10;;
6523;SDS011;3295;38.928;-77.052;2023-07-08T02:30:28;8.57;;;4.80;;
6523;SDS011;3295;38.928;-77.052;2023-07-08T02:32:56;8.02;;;4.53;;
6523;SDS011;3295;38.928;-77.052;2023-07-08T02:35:24;11.02;;;5.45;;
6523;SDS011;3295;38.928;-77.052;2023-07-08T02:37:52;11.70;;;5.85;;
6523;SDS011;3295;38.928;-77.052;2023-07-08T02:40:19;9.50;;;4.80;;
6523;SDS011;3295;38.928;-77.052;2023-07-08T02:42:46;7.45;;;4.72;;
6523;SDS011;3295;38.928;-77.052;2023-07-08T02:45:14;9.52;;;5.38;;
6523;SDS011;3295;38.928;-77.052;2023-07-08T02:47:41;9.07;;;4.47;;
6523;SDS011;3295;38.928;-77.052;2023-07-08T02:50:10;8.43;;;5.00;;
6523;SDS011;3295;38.928;-77.052;2023-07-08T02:52:37;8.85;;;4.95;;
6523;SDS011;3295;38.928;-77.052;2023-07-08T02:55:05;8.85;;;5.30;;
6523;SDS011;3295;38.928;-77.052;2023-07-08T02:57:32;9.73;;;5.27;;
6523;SDS011;3295;38.928;-77.052;2023-07-08T02:59:59;7.33;;;4.67;;
6523;SDS011;3295;38.928;-77.052;2023-07-08T03:02:28;8.75;;;4.85;;
6523;SDS011;3295;38.928;-77.052;2023-07-08T03:04:55;9.35;;;5.13;;
6523;SDS011;3295;38.928;-77.052;2023-07-08T03:07:25;8.10;;;4.57;;
6523;SDS011;3295;38.928;-77.052;2023-07-08T03:09:53;8.80;;;5.37;;
6523;SDS011;3295;38.928;-77.052;2023-07-08T03:12:20;9.57;;;5.13;;
6523;SDS011;3295;38.928;-77.052;2023-07-08T03:14:47;8.80;;;4.40;;
6523;SDS011;3295;38.928;-77.052;2023-07-08T03:17:14;7.50;;;4.70;;
6523;SDS011;3295;38.928;-77.052;2023-07-08T03:19:42;8.50;;;4.93;;
6523;SDS011;3295;38.928;-77.052;2023-07-08T03:22:09;12.67;;;5.17;;
6523;SDS011;3295;38.928;-77.052;2023-07-08T03:24:37;8.80;;;4.43;;
6523;SDS011;3295;38.928;-77.052;2023-07-08T03:27:10;8.97;;;5.07;;
6523;SDS011;3295;38.928;-77.052;2023-07-08T03:29:37;9.27;;;4.90;;
6523;SDS011;3295;38.928;-77.052;2023-07-08T03:32:05;8.80;;;5.10;;
6523;SDS011;3295;38.928;-77.052;2023-07-08T03:34:32;8.57;;;5.17;;
6523;SDS011;3295;38.928;-77.052;2023-07-08T03:36:59;8.83;;;4.97;;
6523;SDS011;3295;38.928;-77.052;2023-07-08T03:39:26;12.23;;;5.37;;
6523;SDS011;3295;38.928;-77.052;2023-07-08T03:41:55;9.27;;;5.17;;
6523;SDS011;3295;38.928;-77.052;2023-07-08T03:44:22;8.07;;;4.77;;
6523;SDS011;3295;38.928;-77.052;2023-07-08T03:46:49;7.40;;;4.77;;
6523;SDS011;3295;38.928;-77.052;2023-07-08T03:49:17;10.03;;;5.10;;
6523;SDS011;3295;38.928;-77.052;2023-07-08T03:51:47;9.17;;;5.00;;
6523;SDS011;3295;38.928;-77.052;2023-07-08T03:54:14;7.60;;;5.10;;
6523;SDS011;3295;38.928;-77.052;2023-07-08T03:56:42;9.57;;;5.03;;
6523;SDS011;3295;38.928;-77.052;2023-07-08T03:59:10;7.63;;;4.77;;
6523;SDS011;3295;38.928;-77.052;2023-07-08T04:01:37;8.60;;;4.93;;
6523;SDS011;3295;38.928;-77.052;2023-07-08T04:04:06;7.67;;;4.90;;
6523;SDS011;3295;38.928;-77.052;2023-07-08T04:06:35;9.33;;;4.97;;
6523;SDS011;3295;38.928;-77.052;2023-07-08T04:09:02;8.90;;;4.87;;
6523;SDS011;3295;38.928;-77.052;2023-07-08T04:11:29;7.57;;;4.70;;
6523;SDS011;3295;38.928;-77.052;2023-07-08T04:13:56;9.23;;;4.90;;
6523;SDS011;3295;38.928;-77.052;2023-07-08T04:16:25;8.83;;;4.93;;
6523;SDS011;3295;38.928;-77.052;2023-07-08T04:18:53;8.40;;;5.10;;
6523;SDS011;3295;38.928;-77.052;2023-07-08T04:21:21;9.50;;;5.37;;
6523;SDS011;3295;38.928;-77.052;2023-07-08T04:23:48;8.27;;;5.03;;
6523;SDS011;3295;38.928;-77.052;2023-07-08T04:26:15;8.03;;;5.10;;
6523;SDS011;3295;38.928;-77.052;2023-07-08T04:28:44;7.67;;;4.67;;
6523;SDS011;3295;38.928;-77.052;2023-07-08T04:31:11;9.43;;;4.87;;
6523;SDS011;3295;38.928;-77.052;2023-07-08T04:33:40;7.37;;;4.33;;
6523;SDS011;3295;38.928;-77.052;2023-07-08T04:36:09;9.20;;;4.60;;
6523;SDS011;3295;38.928;-77.052;2023-07-08T04:38:38;9.87;;;5.30;;
6523;SDS011;3295;38.928;-77.052;2023-07-08T04:41:06;8.40;;;4.90;;
6523;SDS011;3295;38.928;-77.052;2023-07-08T04:43:33;11.07;;;5.27;;
6523;SDS011;3295;38.928;-77.052;2023-07-08T04:46:00;8.50;;;4.53;;
6523;SDS011;3295;38.928;-77.052;2023-07-08T04:48:28;11.67;;;5.03;;
6523;SDS011;3295;38.928;-77.052;2023-07-08T04:50:56;10.43;;;5.10;;
6523;SDS011;3295;38.928;-77.052;2023-07-08T04:53:24;7.60;;;4.77;;
6523;SDS011;3295;38.928;-77.052;2023-07-08T04:55:52;9.67;;;5.57;;
6523;SDS011;3295;38.928;-77.052;2023-07-08T04:58:21;8.50;;;4.70;;
6523;SDS011;3295;38.928;-77.052;2023-07-08T05:00:48;10.13;;;4.57;;
6523;SDS011;3295;38.928;-77.052;2023-07-08T05:03:15;9.60;;;5.43;;
6523;SDS011;3295;38.928;-77.052;2023-07-08T05:05:42;9.50;;;4.90;;
6523;SDS011;3295;38.928;-77.052;2023-07-08T05:08:11;7.83;;;4.87;;
6523;SDS011;3295;38.928;-77.052;2023-07-08T05:10:38;8.37;;;5.10;;
6523;SDS011;3295;38.928;-77.052;2023-07-08T05:13:05;10.10;;;4.93;;
6523;SDS011;3295;38.928;-77.052;2023-07-08T05:15:33;8.27;;;4.80;;
6523;SDS011;3295;38.928;-77.052;2023-07-08T05:18:00;9.40;;;5.00;;
6523;SDS011;3295;38.928;-77.052;2023-07-08T05:20:27;9.37;;;5.10;;
6523;SDS011;3295;38.928;-77.052;2023-07-08T05:22:56;8.33;;;5.27;;
6523;SDS011;3295;38.928;-77.052;2023-07-08T05:25:25;9.70;;;5.17;;
6523;SDS011;3295;38.928;-77.052;2023-07-08T05:27:52;10.43;;;5.43;;
6523;SDS011;3295;38.928;-77.052;2023-07-08T05:30:20;8.73;;;5.20;;
6523;SDS011;3295;38.928;-77.052;2023-07-08T05:32:47;7.80;;;4.77;;
6523;SDS011;3295;38.928;-77.052;2023-07-08T05:35:14;9.40;;;5.10;;
6523;SDS011;3295;38.928;-77.052;2023-07-08T05:37:41;8.43;;;4.90;;
6523;SDS011;3295;38.928;-77.052;2023-07-08T05:40:12;8.73;;;4.77;;
6523;SDS011;3295;38.928;-77.052;2023-07-08T05:42:41;9.53;;;4.83;;
6523;SDS011;3295;38.928;-77.052;2023-07-08T05:45:08;8.63;;;5.10;;
6523;SDS011;3295;38.928;-77.052;2023-07-08T05:47:36;8.03;;;4.80;;
6523;SDS011;3295;38.928;-77.052;2023-07-08T05:50:04;8.17;;;4.63;;
6523;SDS011;3295;38.928;-77.052;2023-07-08T05:52:31;8.30;;;4.90;;
6523;SDS011;3295;38.928;-77.052;2023-07-08T05:54:58;9.17;;;5.30;;
6523;SDS011;3295;38.928;-77.052;2023-07-08T05:57:25;8.77;;;4.90;;
6523;SDS011;3295;38.928;-77.052;2023-07-08T05:59:54;10.37;;;5.23;;
6523;SDS011;3295;38.928;-77.052;2023-07-08T06:02:21;11.00;;;5.30;;
6523;SDS011;3295;38.928;-77.052;2023-07-08T06:04:50;8.93;;;5.10;;
6523;SDS011;3295;38.928;-77.052;2023-07-08T06:07:18;8.90;;;5.00;;
6523;SDS011;3295;38.928;-77.052;2023-07-08T06:09:45;8.40;;;4.80;;
6523;SDS011;3295;38.928;-77.052;2023-07-08T06:12:12;9.37;;;5.53;;
6523;SDS011;3295;38.928;-77.052;2023-07-08T06:14:39;9.67;;;4.97;;
6523;SDS011;3295;38.928;-77.052;2023-07-08T06:17:08;10.30;;;5.70;;
6523;SDS011;3295;38.928;-77.052;2023-07-08T06:19:35;9.30;;;5.03;;
6523;SDS011;3295;38.928;-77.052;2023-07-08T06:22:03;9.57;;;5.00;;
6523;SDS011;3295;38.928;-77.052;2023-07-08T06:24:30;14.40;;;5.03;;
6523;SDS011;3295;38.928;-77.052;2023-07-08T06:26:57;11.17;;;5.77;;
6523;SDS011;3295;38.928;-77.052;2023-07-08T06:29:24;7.90;;;4.50;;
6523;SDS011;3295;38.928;-77.052;2023-07-08T06:31:52;8.13;;;5.20;;
6523;SDS011;3295;38.928;-77.052;2023-07-08T06:34:20;11.27;;;5.00;;
6523;SDS011;3295;38.928;-77.052;2023-07-08T06:36:49;11.63;;;4.87;;
6523;SDS011;3295;38.928;-77.052;2023-07-08T06:39:16;8.10;;;4.70;;
6523;SDS011;3295;38.928;-77.052;2023-07-08T06:41:43;8.93;;;4.97;;
6523;SDS011;3295;38.928;-77.052;2023-07-08T06:44:11;9.37;;;5.20;;
6523;SDS011;3295;38.928;-77.052;2023-07-08T06:46:38;10.63;;;5.20;;
6523;SDS011;3295;38.928;-77.052;2023-07-08T06:49:05;8.53;;;5.30;;
6523;SDS011;3295;38.928;-77.052;2023-07-08T06:51:36;10.83;;;5.03;;
6523;SDS011;3295;38.928;-77.052;2023-07-08T06:54:03;11.07;;;5.40;;
6523;SDS011;3295;38.928;-77.052;2023-07-08T06:56:36;8.97;;;5.27;;
6523;SDS011;3295;38.928;-77.052;2023-07-08T06:59:04;8.57;;;5.30;;
6523;SDS011;3295;38.928;-77.052;2023-07-08T07:01:31;7.63;;;4.47;;
6523;SDS011;3295;38.928;-77.052;2023-07-08T07:03:58;9.47;;;4.90;;
6523;SDS011;3295;38.928;-77.052;2023-07-08T07:06:26;8.07;;;4.87;;
6523;SDS011;3295;38.928;-77.052;2023-07-08T07:08:55;12.87;;;5.40;;
6523;SDS011;3295;38.928;-77.052;2023-07-08T07:11:22;9.70;;;4.80;;
6523;SDS011;3295;38.928;-77.052;2023-07-08T07:13:48;10.77;;;4.90;;
6523;SDS011;3295;38.928;-77.052;2023-07-08T07:16:15;8.33;;;4.50;;
6523;SDS011;3295;38.928;-77.052;2023-07-08T07:18:42;8.77;;;5.23;;
6523;SDS011;3295;38.928;-77.052;2023-07-08T07:21:10;8.77;;;5.10;;
6523;SDS011;3295;38.928;-77.052;2023-07-08T07:23:37;10.00;;;5.10;;
6523;SDS011;3295;38.928;-77.052;2023-07-08T07:26:06;9.93;;;5.30;;
6523;SDS011;3295;38.928;-77.052;2023-07-08T07:28:33;8.70;;;5.33;;
6523;SDS011;3295;38.928;-77.052;2023-07-08T07:31:00;10.17;;;5.27;;
6523;SDS011;3295;38.928;-77.052;2023-07-08T07:33:27;13.00;;;5.67;;
6523;SDS011;3295;38.928;-77.052;2023-07-08T07:35:54;8.37;;;4.90;;
6523;SDS011;3295;38.928;-77.052;2023-07-08T07:38:22;9.67;;;5.10;;
6523;SDS011;3295;38.928;-77.052;2023-07-08T07:40:52;11.80;;;5.93;;
6523;SDS011;3295;38.928;-77.052;2023-07-08T07:43:21;8.37;;;4.90;;
6523;SDS011;3295;38.928;-77.052;2023-07-08T07:45:49;9.27;;;5.07;;
6523;SDS011;3295;38.928;-77.052;2023-07-08T07:48:16;9.40;;;4.70;;
6523;SDS011;3295;38.928;-77.052;2023-07-08T07:50:44;8.40;;;5.03;;
6523;SDS011;3295;38.928;-77.052;2023-07-08T07:53:11;10.23;;;5.33;;
6523;SDS011;3295;38.928;-77.052;2023-07-08T07:55:38;8.40;;;4.80;;
6523;SDS011;3295;38.928;-77.052;2023-07-08T07:58:05;8.60;;;5.13;;
6523;SDS011;3295;38.928;-77.052;2023-07-08T08:00:34;9.40;;;5.40;;
6523;SDS011;3295;38.928;-77.052;2023-07-08T08:03:02;8.00;;;5.03;;
6523;SDS011;3295;38.928;-77.052;2023-07-08T08:05:29;11.10;;;5.43;;
6523;SDS011;3295;38.928;-77.052;2023-07-08T08:07:56;12.10;;;5.60;;
6523;SDS011;3295;38.928;-77.052;2023-07-08T08:10:23;10.10;;;4.97;;
6523;SDS011;3295;38.928;-77.052;2023-07-08T08:12:50;8.97;;;4.90;;
6523;SDS011;3295;38.928;-77.052;2023-07-08T08:15:18;11.40;;;5.03;;
6523;SDS011;3295;38.928;-77.052;2023-07-08T08:17:47;11.43;;;6.00;;
6523;SDS011;3295;38.928;-77.052;2023-07-08T08:20:17;8.67;;;5.03;;
6523;SDS011;3295;38.928;-77.052;2023-07-08T08:22:44;9.63;;;5.13;;
6523;SDS011;3295;38.928;-77.052;2023-07-08T08:25:11;7.97;;;4.87;;
6523;SDS011;3295;38.928;-77.052;2023-07-08T08:27:38;8.73;;;5.17;;
6523;SDS011;3295;38.928;-77.052;2023-07-08T08:30:06;9.90;;;5.50;;
6523;SDS011;3295;38.928;-77.052;2023-07-08T08:32:33;9.17;;;5.20;;
6523;SDS011;3295;38.928;-77.052;2023-07-08T08:35:02;12.27;;;5.37;;
6523;SDS011;3295;38.928;-77.052;2023-07-08T08:37:29;10.60;;;5.30;;
6523;SDS011;3295;38.928;-77.052;2023-07-08T08:39:56;10.73;;;4.83;;
6523;SDS011;3295;38.928;-77.052;2023-07-08T08:42:25;8.47;;;5.20;;
6523;SDS011;3295;38.928;-77.052;2023-07-08T08:44:52;9.37;;;5.30;;
6523;SDS011;3295;38.928;-77.052;2023-07-08T08:47:25;10.10;;;5.97;;
6523;SDS011;3295;38.928;-77.052;2023-07-08T08:49:54;10.17;;;5.50;;
6523;SDS011;3295;38.928;-77.052;2023-07-08T08:52:24;8.23;;;4.93;;
6523;SDS011;3295;38.928;-77.052;2023-07-08T08:54:51;9.90;;;5.40;;
6523;SDS011;3295;38.928;-77.052;2023-07-08T08:57:20;9.73;;;5.00;;
6523;SDS011;3295;38.928;-77.052;2023-07-08T08:59:52;9.77;;;5.60;;
6523;SDS011;3295;38.928;-77.052;2023-07-08T09:02:25;9.70;;;5.53;;
6523;SDS011;3295;38.928;-77.052;2023-07-08T09:04:54;11.60;;;5.40;;
6523;SDS011;3295;38.928;-77.052;2023-07-08T09:07:21;10.33;;;5.37;;
6523;SDS011;3295;38.928;-77.052;2023-07-08T09:09:52;8.73;;;5.33;;
6523;SDS011;3295;38.928;-77.052;2023-07-08T09:12:23;13.63;;;5.57;;
6523;SDS011;3295;38.928;-77.052;2023-07-08T09:14:51;10.93;;;6.00;;
6523;SDS011;3295;38.928;-77.052;2023-07-08T09:17:19;11.57;;;5.70;;
6523;SDS011;3295;38.928;-77.052;2023-07-08T09:19:49;9.03;;;5.03;;
6523;SDS011;3295;38.928;-77.052;2023-07-08T09:22:19;11.47;;;5.73;;
6523;SDS011;3295;38.928;-77.052;2023-07-08T09:24:48;10.10;;;5.70;;
6523;SDS011;3295;38.928;-77.052;2023-07-08T09:27:18;10.70;;;5.63;;
6523;SDS011;3295;38.928;-77.052;2023-07-08T09:29:45;8.20;;;5.10;;
6523;SDS011;3295;38.928;-77.052;2023-07-08T09:32:14;10.67;;;6.20;;
6523;SDS011;3295;38.928;-77.052;2023-07-08T09:34:43;10.67;;;5.80;;
6523;SDS011;3295;38.928;-77.052;2023-07-08T09:37:21;9.83;;;5.53;;
6523;SDS011;3295;38.928;-77.052;2023-07-08T09:39:48;10.70;;;5.37;;
6523;SDS011;3295;38.928;-77.052;2023-07-08T09:42:15;11.57;;;5.93;;
6523;SDS011;3295;38.928;-77.052;2023-07-08T09:44:45;8.93;;;5.20;;
6523;SDS011;3295;38.928;-77.052;2023-07-08T09:47:20;11.47;;;5.63;;
6523;SDS011;3295;38.928;-77.052;2023-07-08T09:49:47;11.03;;;5.40;;
6523;SDS011;3295;38.928;-77.052;2023-07-08T09:52:14;13.00;;;5.77;;
6523;SDS011;3295;38.928;-77.052;2023-07-08T09:54:41;10.70;;;5.60;;
6523;SDS011;3295;38.928;-77.052;2023-07-08T09:57:10;12.07;;;5.73;;
6523;SDS011;3295;38.928;-77.052;2023-07-08T09:59:39;9.50;;;5.77;;
6523;SDS011;3295;38.928;-77.052;2023-07-08T10:04:57;10.27;;;5.33;;
6523;SDS011;3295;38.928;-77.052;2023-07-08T10:07:25;8.57;;;5.13;;
6523;SDS011;3295;38.928;-77.052;2023-07-08T10:09:54;10.63;;;5.23;;
6523;SDS011;3295;38.928;-77.052;2023-07-08T10:12:22;9.70;;;5.73;;
6523;SDS011;3295;38.928;-77.052;2023-07-08T10:14:50;10.80;;;5.63;;
6523;SDS011;3295;38.928;-77.052;2023-07-08T10:17:19;9.37;;;5.33;;
6523;SDS011;3295;38.928;-77.052;2023-07-08T10:19:47;12.30;;;5.70;;
6523;SDS011;3295;38.928;-77.052;2023-07-08T10:22:21;11.40;;;6.00;;
6523;SDS011;3295;38.928;-77.052;2023-07-08T10:24:58;9.13;;;4.97;;
6523;SDS011;3295;38.928;-77.052;2023-07-08T10:27:30;10.30;;;5.93;;
6523;SDS011;3295;38.928;-77.052;2023-07-08T10:30:03;11.27;;;5.77;;
6523;SDS011;3295;38.928;-77.052;2023-07-08T10:32:37;10.97;;;6.20;;
6523;SDS011;3295;38.928;-77.052;2023-07-08T10:35:09;9.53;;;5.83;;
6523;SDS011;3295;38.928;-77.052;2023-07-08T10:37:42;11.13;;;6.10;;
6523;SDS011;3295;38.928;-77.052;2023-07-08T10:40:21;11.20;;;5.23;;
6523;SDS011;3295;38.928;-77.052;2023-07-08T10:45:34;10.37;;;5.70;;
6523;SDS011;3295;38.928;-77.052;2023-07-08T10:48:08;10.30;;;5.97;;
6523;SDS011;3295;38.928;-77.052;2023-07-08T10:50:42;10.03;;;5.97;;
6523;SDS011;3295;38.928;-77.052;2023-07-08T10:53:21;11.53;;;5.97;;
6523;SDS011;3295;38.928;-77.052;2023-07-08T10:55:53;10.47;;;6.03;;
6523;SDS011;3295;38.928;-77.052;2023-07-08T10:58:29;10.40;;;6.03;;
6523;SDS011;3295;38.928;-77.052;2023-07-08T11:01:00;10.80;;;5.73;;
6523;SDS011;3295;38.928;-77.052;2023-07-08T11:03:41;9.10;;;5.77;;
6523;SDS011;3295;38.928;-77.052;2023-07-08T11:06:11;10.63;;;5.97;;
6523;SDS011;3295;38.928;-77.052;2023-07-08T11:08:41;9.70;;;5.90;;
6523;SDS011;3295;38.928;-77.052;2023-07-08T11:11:12;11.43;;;5.37;;
6523;SDS011;3295;38.928;-77.052;2023-07-08T11:13:45;10.60;;;6.30;;
6523;SDS011;3295;38.928;-77.052;2023-07-08T11:16:15;10.97;;;5.90;;
6523;SDS011;3295;38.928;-77.052;2023-07-08T11:18:47;10.13;;;5.50;;
6523;SDS011;3295;38.928;-77.052;2023-07-08T11:21:16;10.93;;;6.00;;
6523;SDS011;3295;38.928;-77.052;2023-07-08T11:23:47;10.33;;;5.87;;
6523;SDS011;3295;38.928;-77.052;2023-07-08T11:26:18;10.50;;;5.60;;
6523;SDS011;3295;38.928;-77.052;2023-07-08T11:28:47;11.10;;;6.07;;
6523;SDS011;3295;38.928;-77.052;2023-07-08T11:31:15;8.80;;;5.43;;
6523;SDS011;3295;38.928;-77.052;2023-07-08T11:33:42;9.63;;;5.77;;
6523;SDS011;3295;38.928;-77.052;2023-07-08T11:36:10;10.27;;;5.73;;
6523;SDS011;3295;38.928;-77.052;2023-07-08T11:38:38;13.23;;;5.73;;
6523;SDS011;3295;38.928;-77.052;2023-07-08T11:41:16;10.87;;;6.10;;
6523;SDS011;3295;38.928;-77.052;2023-07-08T11:43:45;10.27;;;6.10;;
6523;SDS011;3295;38.928;-77.052;2023-07-08T11:46:14;8.73;;;5.33;;
6523;SDS011;3295;38.928;-77.052;2023-07-08T11:48:42;9.53;;;5.13;;
6523;SDS011;3295;38.928;-77.052;2023-07-08T11:51:10;10.20;;;5.80;;
6523;SDS011;3295;38.928;-77.052;2023-07-08T11:53:46;11.43;;;5.93;;
6523;SDS011;3295;38.928;-77.052;2023-07-08T11:56:22;10.07;;;5.60;;
6523;SDS011;3295;38.928;-77.052;2023-07-08T11:58:52;10.20;;;5.80;;
6523;SDS011;3295;38.928;-77.052;2023-07-08T12:01:22;8.93;;;5.30;;
6523;SDS011;3295;38.928;-77.052;2023-07-08T12:03:50;11.10;;;5.80;;
6523;SDS011;3295;38.928;-77.052;2023-07-08T12:09:13;10.40;;;5.37;;
6523;SDS011;3295;38.928;-77.052;2023-07-08T12:11:43;9.43;;;5.10;;
6523;SDS011;3295;38.928;-77.052;2023-07-08T12:14:10;11.23;;;6.00;;
6523;SDS011;3295;38.928;-77.052;2023-07-08T12:16:37;8.63;;;5.57;;
6523;SDS011;3295;38.928;-77.052;2023-07-08T12:19:05;9.37;;;5.67;;
6523;SDS011;3295;38.928;-77.052;2023-07-08T12:21:34;9.83;;;5.67;;
6523;SDS011;3295;38.928;-77.052;2023-07-08T12:24:03;7.80;;;4.93;;
6523;SDS011;3295;38.928;-77.052;2023-07-08T12:26:31;9.17;;;5.40;;
6523;SDS011;3295;38.928;-77.052;2023-07-08T12:28:59;9.67;;;5.50;;
6523;SDS011;3295;38.928;-77.052;2023-07-08T12:31:26;9.07;;;5.47;;
6523;SDS011;3295;38.928;-77.052;2023-07-08T12:33:54;10.47;;;5.40;;
6523;SDS011;3295;38.928;-77.052;2023-07-08T12:36:22;8.73;;;4.87;;
6523;SDS011;3295;38.928;-77.052;2023-07-08T12:38:52;8.33;;;5.20;;
6523;SDS011;3295;38.928;-77.052;2023-07-08T12:41:21;10.77;;;5.30;;
6523;SDS011;3295;38.928;-77.052;2023-07-08T12:43:48;10.03;;;5.50;;
6523;SDS011;3295;38.928;-77.052;2023-07-08T12:46:18;10.27;;;5.67;;
6523;SDS011;3295;38.928;-77.052;2023-07-08T12:48:46;11.53;;;6.03;;
6523;SDS011;3295;38.928;-77.052;2023-07-08T12:51:14;11.27;;;5.77;;
6523;SDS011;3295;38.928;-77.052;2023-07-08T12:53:41;10.43;;;5.60;;
6523;SDS011;3295;38.928;-77.052;2023-07-08T12:56:09;9.77;;;5.73;;
6523;SDS011;3295;38.928;-77.052;2023-07-08T12:58:37;10.03;;;5.53;;
6523;SDS011;3295;38.928;-77.052;2023-07-08T13:01:05;10.27;;;5.73;;
6523;SDS011;3295;38.928;-77.052;2023-07-08T13:03:35;9.67;;;5.97;;
6523;SDS011;3295;38.928;-77.052;2023-07-08T13:06:04;10.67;;;5.43;;
6523;SDS011;3295;38.928;-77.052;2023-07-08T13:08:34;9.13;;;5.63;;
6523;SDS011;3295;38.928;-77.052;2023-07-08T13:11:02;10.97;;;5.60;;
6523;SDS011;3295;38.928;-77.052;2023-07-08T13:13:31;9.83;;;5.30;;
6523;SDS011;3295;38.928;-77.052;2023-07-08T13:16:00;9.73;;;5.60;;
6523;SDS011;3295;38.928;-77.052;2023-07-08T13:18:30;10.40;;;6.20;;
6523;SDS011;3295;38.928;-77.052;2023-07-08T13:20:59;11.53;;;6.03;;
6523;SDS011;3295;38.928;-77.052;2023-07-08T13:23:27;10.80;;;6.07;;
6523;SDS011;3295;38.928;-77.052;2023-07-08T13:25:54;10.57;;;5.83;;
6523;SDS011;3295;38.928;-77.052;2023-07-08T13:28:23;10.23;;;5.47;;
6523;SDS011;3295;38.928;-77.052;2023-07-08T13:30:51;9.47;;;6.07;;
6523;SDS011;3295;38.928;-77.052;2023-07-08T13:33:19;10.87;;;6.13;;
6523;SDS011;3295;38.928;-77.052;2023-07-08T13:35:46;9.88;;;5.93;;
6523;SDS011;3295;38.928;-77.052;2023-07-08T13:38:16;11.37;;;6.03;;
6523;SDS011;3295;38.928;-77.052;2023-07-08T13:40:44;10.63;;;5.70;;
6523;SDS011;3295;38.928;-77.052;2023-07-08T13:43:12;9.80;;;5.80;;
6523;SDS011;3295;38.928;-77.052;2023-07-08T13:45:42;11.37;;;5.90;;
6523;SDS011;3295;38.928;-77.052;2023-07-08T13:48:13;11.13;;;5.80;;
6523;SDS011;3295;38.928;-77.052;2023-07-08T13:50:43;9.40;;;5.80;;
6523;SDS011;3295;38.928;-77.052;2023-07-08T13:53:20;9.33;;;5.43;;
6523;SDS011;3295;38.928;-77.052;2023-07-08T13:55:48;9.00;;;5.77;;
6523;SDS011;3295;38.928;-77.052;2023-07-08T13:58:16;9.97;;;5.80;;
6523;SDS011;3295;38.928;-77.052;2023-07-08T14:00:43;11.48;;;6.22;;
6523;SDS011;3295;38.928;-77.052;2023-07-08T14:03:11;9.03;;;5.50;;
6523;SDS011;3295;38.928;-77.052;2023-07-08T14:05:38;11.53;;;5.73;;
6523;SDS011;3295;38.928;-77.052;2023-07-08T14:08:09;11.65;;;6.20;;
6523;SDS011;3295;38.928;-77.052;2023-07-08T14:10:40;9.52;;;6.05;;
6523;SDS011;3295;38.928;-77.052;2023-07-08T14:13:07;10.30;;;5.80;;
6523;SDS011;3295;38.928;-77.052;2023-07-08T14:15:34;14.25;;;5.82;;
6523;SDS011;3295;38.928;-77.052;2023-07-08T14:18:01;13.73;;;6.68;;
6523;SDS011;3295;38.928;-77.052;2023-07-08T14:20:28;10.73;;;6.28;;
6523;SDS011;3295;38.928;-77.052;2023-07-08T14:22:56;13.95;;;6.63;;
6523;SDS011;3295;38.928;-77.052;2023-07-08T14:25:23;12.35;;;6.13;;
6523;SDS011;3295;38.928;-77.052;2023-07-08T14:27:51;10.45;;;6.55;;
6523;SDS011;3295;38.928;-77.052;2023-07-08T14:30:19;11.25;;;6.30;;
6523;SDS011;3295;38.928;-77.052;2023-07-08T14:32:47;12.40;;;6.95;;
6523;SDS011;3295;38.928;-77.052;2023-07-08T14:35:15;14.18;;;7.03;;
6523;SDS011;3295;38.928;-77.052;2023-07-08T14:37:43;11.27;;;6.70;;
6523;SDS011;3295;38.928;-77.052;2023-07-08T14:40:12;12.18;;;6.82;;
6523;SDS011;3295;38.928;-77.052;2023-07-08T14:42:45;11.35;;;6.50;;
6523;SDS011;3295;38.928;-77.052;2023-07-08T14:45:14;11.25;;;7.05;;
6523;SDS011;3295;38.928;-77.052;2023-07-08T14:47:41;12.75;;;7.32;;
6523;SDS011;3295;38.928;-77.052;2023-07-08T14:50:12;11.77;;;6.55;;
6523;SDS011;3295;38.928;-77.052;2023-07-08T14:52:39;12.30;;;7.18;;
6523;SDS011;3295;38.928;-77.052;2023-07-08T14:55:07;14.27;;;6.90;;
6523;SDS011;3295;38.928;-77.052;2023-07-08T14:57:38;14.68;;;7.50;;
6523;SDS011;3295;38.928;-77.052;2023-07-08T15:00:06;12.50;;;7.18;;